createdAt,value
2023-04-30T00:04:22.771Z,6.53
2023-04-30T00:09:25.955Z,6.47
2023-04-30T00:14:29.054Z,6.20
2023-04-30T00:19:33.643Z,7.05
2023-04-30T00:24:36.797Z,6.85
2023-04-30T00:29:39.960Z,6.13
2023-04-30T00:34:44.569Z,6.60
2023-04-30T00:39:47.756Z,5.57
2023-04-30T00:44:50.920Z,5.60
2023-04-30T00:49:55.589Z,6.15
2023-04-30T00:54:59.046Z,5.90
2023-04-30T01:00:02.605Z,5.97
2023-04-30T01:05:07.908Z,6.22
2023-04-30T01:10:11.513Z,6.85
2023-04-30T01:15:20.089Z,6.13
2023-04-30T01:20:25.554Z,6.20
2023-04-30T01:25:36.642Z,6.90
2023-04-30T01:30:44.824Z,6.68
2023-04-30T01:35:57.501Z,6.28
2023-04-30T01:41:07.405Z,5.95
2023-04-30T01:46:19.829Z,6.25
2023-04-30T01:51:26.214Z,6.38
2023-04-30T01:56:32.428Z,6.63
2023-04-30T02:01:38.031Z,7.05
2023-04-30T02:06:41.534Z,7.28
2023-04-30T02:11:45.335Z,7.07
2023-04-30T02:16:50.112Z,6.57
2023-04-30T02:21:53.345Z,7.05
2023-04-30T02:26:56.486Z,6.60
2023-04-30T02:32:01.244Z,6.85
2023-04-30T02:37:04.751Z,6.18
2023-04-30T02:42:08.032Z,7.20
2023-04-30T02:47:12.604Z,6.88
2023-04-30T02:52:15.776Z,5.60
2023-04-30T02:57:18.967Z,6.20
2023-04-30T03:02:23.781Z,7.00
2023-04-30T03:07:27.547Z,6.45
2023-04-30T03:12:30.600Z,6.82
2023-04-30T03:17:35.183Z,6.55
2023-04-30T03:22:38.286Z,6.72
2023-04-30T03:27:41.405Z,6.75
2023-04-30T03:32:45.899Z,6.80
2023-04-30T03:37:49.017Z,6.07
2023-04-30T03:42:52.578Z,6.82
2023-04-30T03:47:57.284Z,6.40
2023-04-30T03:53:00.666Z,7.45
2023-04-30T03:58:04.103Z,7.80
2023-04-30T04:03:08.831Z,7.93
2023-04-30T04:08:11.956Z,7.57
2023-04-30T04:13:15.194Z,9.25
2023-04-30T04:18:19.756Z,8.13
2023-04-30T04:23:22.992Z,8.27
2023-04-30T04:28:26.420Z,8.90
2023-04-30T04:33:31.072Z,8.75
2023-04-30T04:38:34.526Z,8.60
2023-04-30T04:43:39.273Z,8.88
2023-04-30T04:48:44.314Z,8.63
2023-04-30T04:53:47.669Z,8.80
2023-04-30T04:58:50.811Z,8.60
2023-04-30T05:03:55.516Z,9.55
2023-04-30T05:08:58.587Z,9.40
2023-04-30T05:14:01.672Z,9.65
2023-04-30T05:19:06.141Z,9.20
2023-04-30T05:24:09.338Z,10.25
2023-04-30T05:29:12.620Z,10.00
2023-04-30T05:34:17.108Z,8.98
2023-04-30T05:39:20.287Z,10.57
2023-04-30T05:44:23.438Z,10.65
2023-04-30T05:49:28.385Z,9.55
2023-04-30T05:54:31.492Z,9.82
2023-04-30T05:59:34.689Z,9.35
2023-04-30T06:04:39.215Z,7.95
2023-04-30T06:09:42.345Z,8.18
2023-04-30T06:14:45.943Z,8.30
2023-04-30T06:19:50.417Z,8.23
2023-04-30T06:24:53.593Z,7.28
2023-04-30T06:29:57.132Z,8.02
2023-04-30T06:35:01.947Z,7.15
2023-04-30T06:40:06.188Z,7.25
2023-04-30T06:45:09.989Z,7.60
2023-04-30T06:50:15.748Z,6.63
2023-04-30T06:55:19.084Z,7.68
2023-04-30T07:00:22.143Z,7.63
2023-04-30T07:05:26.599Z,7.45
2023-04-30T07:10:29.761Z,7.80
2023-04-30T07:15:32.869Z,7.50
2023-04-30T07:20:37.425Z,7.18
2023-04-30T07:25:40.937Z,7.05
2023-04-30T07:30:44.030Z,8.40
2023-04-30T07:35:48.491Z,7.82
2023-04-30T07:40:51.623Z,7.78
2023-04-30T07:45:55.058Z,7.07
2023-04-30T07:50:59.860Z,6.75
2023-04-30T07:56:03.004Z,6.50
2023-04-30T08:01:06.556Z,6.45
2023-04-30T08:06:11.069Z,6.43
2023-04-30T08:11:15.432Z,5.78
2023-04-30T08:16:18.623Z,5.13
2023-04-30T08:21:23.131Z,5.88
2023-04-30T08:26:26.721Z,5.78
2023-04-30T08:31:30.050Z,5.32
2023-04-30T08:36:34.707Z,4.55
2023-04-30T08:41:38.056Z,5.28
2023-04-30T08:46:43.655Z,4.80
2023-04-30T08:51:48.419Z,4.82
2023-04-30T08:56:51.568Z,4.88
2023-04-30T09:01:55.096Z,5.30
2023-04-30T09:07:00.848Z,5.80
2023-04-30T09:12:17.816Z,5.00
2023-04-30T09:17:22.838Z,5.00
2023-04-30T09:22:27.365Z,4.90
2023-04-30T09:27:30.469Z,5.30
2023-04-30T09:32:33.573Z,5.07
2023-04-30T09:37:39.205Z,5.50
2023-04-30T09:42:43.610Z,5.20
2023-04-30T09:47:47.094Z,4.68
2023-04-30T09:52:54.591Z,5.32
2023-04-30T09:57:57.843Z,5.53
2023-04-30T10:03:02.845Z,5.30
2023-04-30T10:08:08.935Z,5.40
2023-04-30T10:13:15.219Z,5.00
2023-04-30T10:18:20.292Z,4.97
2023-04-30T10:23:25.475Z,5.22
2023-04-30T10:28:28.917Z,5.07
2023-04-30T10:33:35.835Z,3.95
2023-04-30T10:38:40.836Z,5.30
2023-04-30T10:43:44.009Z,4.85
2023-04-30T10:48:47.324Z,4.05
2023-04-30T10:53:52.926Z,4.55
2023-04-30T10:58:56.101Z,4.00
2023-04-30T11:04:06.362Z,4.63
2023-04-30T11:09:10.880Z,3.83
2023-04-30T11:14:14.451Z,3.63
2023-04-30T11:19:17.773Z,4.28
2023-04-30T11:24:22.307Z,4.45
2023-04-30T11:29:25.860Z,4.00
2023-04-30T11:34:28.996Z,4.57
2023-04-30T11:39:35.166Z,4.45
2023-04-30T11:44:39.010Z,4.43
2023-04-30T11:49:42.129Z,5.07
2023-04-30T11:54:46.619Z,4.03
2023-04-30T11:59:49.758Z,4.20
2023-04-30T12:04:53.325Z,3.75
2023-04-30T12:09:57.975Z,3.15
2023-04-30T12:15:11.465Z,3.67
2023-04-30T12:20:15.860Z,2.92
2023-04-30T12:25:21.647Z,3.53
2023-04-30T12:30:25.453Z,2.50
2023-04-30T12:35:29.655Z,1.95
2023-04-30T12:40:34.163Z,3.17
2023-04-30T12:45:43.427Z,2.13
2023-04-30T12:50:52.481Z,2.55
2023-04-30T12:56:09.979Z,2.63
2023-04-30T13:01:13.836Z,2.38
2023-04-30T13:06:17.254Z,2.10
2023-04-30T13:11:21.929Z,2.58
2023-04-30T13:16:26.065Z,1.88
2023-04-30T13:21:29.512Z,1.70
2023-04-30T13:26:33.972Z,1.85
2023-04-30T13:31:37.418Z,1.85
2023-04-30T13:36:40.606Z,2.42
2023-04-30T13:41:45.086Z,1.90
2023-04-30T13:46:48.230Z,1.90
2023-04-30T13:51:51.479Z,1.70
2023-04-30T13:56:55.988Z,2.08
2023-04-30T14:01:59.119Z,1.50
2023-04-30T14:07:02.433Z,1.50
2023-04-30T14:12:07.034Z,1.30
2023-04-30T14:17:10.175Z,1.40
2023-04-30T14:22:13.406Z,1.63
2023-04-30T14:27:17.857Z,1.08
2023-04-30T14:32:21.062Z,1.30
2023-04-30T14:37:25.169Z,1.70
2023-04-30T14:42:29.722Z,1.42
2023-04-30T14:47:32.891Z,1.05
2023-04-30T14:52:36.051Z,1.00
2023-04-30T14:57:41.020Z,1.33
2023-04-30T15:02:44.359Z,1.30
2023-04-30T15:07:47.515Z,0.80
2023-04-30T15:12:52.287Z,0.90
2023-04-30T15:17:55.558Z,1.35
2023-04-30T15:22:59.233Z,1.35
2023-04-30T15:28:03.897Z,0.70
2023-04-30T15:33:07.091Z,0.70
2023-04-30T15:38:10.278Z,0.80
2023-04-30T15:43:14.923Z,0.90
2023-04-30T15:48:18.125Z,0.95
2023-04-30T15:53:21.211Z,0.75
2023-04-30T15:58:25.655Z,0.63
2023-04-30T16:03:28.914Z,0.68
2023-04-30T16:08:32.154Z,0.80
2023-04-30T16:13:36.652Z,0.80
2023-04-30T16:18:39.764Z,1.00
2023-04-30T16:23:43.131Z,0.90
2023-04-30T16:28:47.842Z,1.45
2023-04-30T16:33:51.010Z,1.08
2023-04-30T16:38:54.137Z,0.90
2023-04-30T16:43:59.259Z,1.00
2023-04-30T16:49:02.396Z,0.85
2023-04-30T16:54:05.495Z,1.17
2023-04-30T16:59:09.989Z,1.13
2023-04-30T17:04:14.215Z,0.90
2023-04-30T17:09:17.558Z,1.00
2023-04-30T17:14:22.146Z,1.15
2023-04-30T17:19:25.316Z,0.93
2023-04-30T17:24:28.599Z,0.90
2023-04-30T17:29:33.074Z,0.85
2023-04-30T17:34:36.484Z,0.60
2023-04-30T17:39:39.543Z,1.00
2023-04-30T17:44:43.972Z,1.20
2023-04-30T17:49:47.079Z,1.10
2023-04-30T17:54:50.193Z,0.90
2023-04-30T17:59:55.000Z,1.10
2023-04-30T18:04:58.259Z,1.05
2023-04-30T18:10:01.496Z,0.93
2023-04-30T18:15:06.820Z,0.80
2023-04-30T18:20:11.961Z,1.15
2023-04-30T18:25:17.108Z,0.98
2023-04-30T18:30:21.875Z,1.30
2023-04-30T18:35:24.950Z,1.05
2023-04-30T18:40:28.314Z,0.95
2023-04-30T18:45:32.887Z,1.00
2023-04-30T18:50:35.979Z,1.30
2023-04-30T18:55:39.207Z,1.13
2023-04-30T19:00:43.940Z,1.20
2023-04-30T19:05:47.101Z,1.02
2023-04-30T19:10:50.758Z,1.20
2023-04-30T19:15:55.862Z,1.40
2023-04-30T19:21:00.243Z,1.23
2023-04-30T19:26:03.457Z,1.33
2023-04-30T19:31:08.356Z,2.17
2023-04-30T19:36:11.717Z,1.45
2023-04-30T19:41:14.833Z,1.17
2023-04-30T19:46:19.492Z,1.40
2023-04-30T19:51:22.684Z,1.50
2023-04-30T19:56:25.811Z,1.85
2023-04-30T20:01:30.440Z,1.73
2023-04-30T20:06:33.660Z,1.63
2023-04-30T20:11:36.867Z,1.95
2023-04-30T20:16:41.944Z,1.95
2023-04-30T20:21:45.052Z,1.83
2023-04-30T20:26:48.168Z,1.88
2023-04-30T20:31:53.168Z,1.60
2023-04-30T20:36:56.283Z,2.28
2023-04-30T20:42:01.403Z,1.95
2023-04-30T20:47:06.429Z,2.50
2023-04-30T20:52:09.701Z,2.25
2023-04-30T20:57:12.814Z,2.10
2023-04-30T21:02:17.279Z,2.20
2023-04-30T21:07:20.400Z,2.33
2023-04-30T21:12:23.593Z,2.35
2023-04-30T21:17:28.291Z,2.70
2023-04-30T21:22:31.840Z,3.03
2023-04-30T21:27:35.096Z,3.08
2023-04-30T21:32:39.625Z,3.53
2023-04-30T21:37:43.100Z,3.03
2023-04-30T21:42:46.135Z,3.08
2023-04-30T21:47:50.646Z,3.03
2023-04-30T21:52:53.976Z,3.47
2023-04-30T21:57:57.097Z,3.28
2023-04-30T22:03:01.575Z,3.60
2023-04-30T22:08:05.364Z,3.45
2023-04-30T22:13:08.613Z,3.30
2023-04-30T22:18:13.072Z,3.92
2023-04-30T22:23:16.747Z,3.17
2023-04-30T22:28:21.004Z,3.83
2023-04-30T22:33:25.906Z,3.50
2023-04-30T22:38:29.247Z,3.17
2023-04-30T22:43:32.457Z,3.25
2023-04-30T22:48:36.897Z,3.38
2023-04-30T22:53:40.028Z,3.08
2023-04-30T22:58:43.121Z,3.22
2023-04-30T23:03:47.692Z,3.65
2023-04-30T23:08:51.092Z,3.22
2023-04-30T23:13:54.224Z,2.95
2023-04-30T23:18:58.684Z,3.45
2023-04-30T23:24:01.780Z,3.42
2023-04-30T23:29:04.828Z,3.95
2023-04-30T23:34:09.311Z,3.30
2023-04-30T23:39:12.421Z,3.17
2023-04-30T23:44:15.659Z,3.65
2023-04-30T23:49:24.437Z,3.38
2023-04-30T23:54:27.649Z,4.40
2023-04-30T23:59:30.700Z,3.60
